sensor_id;sensor_type;location;lat;lon;timestamp;P1;durP1;ratioP1;P2;durP2;ratioP2
26157;SDS011;67284;44.782;10.282;2023-02-26T00:03:21;81.22;;;43.75;;
26157;SDS011;67284;44.782;10.282;2023-02-26T00:08:13;76.53;;;42.25;;
26157;SDS011;67284;44.782;10.282;2023-02-26T00:13:05;78.68;;;40.47;;
26157;SDS011;67284;44.782;10.282;2023-02-26T00:17:58;85.32;;;41.30;;
26157;SDS011;67284;44.782;10.282;2023-02-26T00:22:52;76.82;;;40.75;;
26157;SDS011;67284;44.782;10.282;2023-02-26T00:27:44;76.70;;;41.80;;
26157;SDS011;67284;44.782;10.282;2023-02-26T00:32:36;71.68;;;36.97;;
26157;SDS011;67284;44.782;10.282;2023-02-26T00:42:59;77.78;;;42.75;;
26157;SDS011;67284;44.782;10.282;2023-02-26T00:47:59;74.22;;;39.78;;
26157;SDS011;67284;44.782;10.282;2023-02-26T00:53:09;76.90;;;38.67;;
26157;SDS011;67284;44.782;10.282;2023-02-26T00:58:05;80.50;;;44.03;;
26157;SDS011;67284;44.782;10.282;2023-02-26T01:02:57;86.63;;;42.35;;
26157;SDS011;67284;44.782;10.282;2023-02-26T01:08:12;81.18;;;41.72;;
26157;SDS011;67284;44.782;10.282;2023-02-26T01:13:18;79.28;;;40.38;;
26157;SDS011;67284;44.782;10.282;2023-02-26T01:18:15;76.05;;;39.85;;
26157;SDS011;67284;44.782;10.282;2023-02-26T01:23:13;80.07;;;42.90;;
26157;SDS011;67284;44.782;10.282;2023-02-26T01:28:08;73.93;;;41.35;;
26157;SDS011;67284;44.782;10.282;2023-02-26T01:33:39;83.00;;;42.85;;
26157;SDS011;67284;44.782;10.282;2023-02-26T01:43:44;82.97;;;41.38;;
26157;SDS011;67284;44.782;10.282;2023-02-26T01:48:54;69.10;;;37.47;;
26157;SDS011;67284;44.782;10.282;2023-02-26T01:53:48;79.60;;;42.55;;
26157;SDS011;67284;44.782;10.282;2023-02-26T01:58:40;80.70;;;39.80;;
26157;SDS011;67284;44.782;10.282;2023-02-26T02:03:33;77.30;;;40.67;;
26157;SDS011;67284;44.782;10.282;2023-02-26T02:08:28;74.60;;;39.83;;
26157;SDS011;67284;44.782;10.282;2023-02-26T02:33:52;70.90;;;37.50;;
26157;SDS011;67284;44.782;10.282;2023-02-26T02:39:01;60.70;;;33.17;;
26157;SDS011;67284;44.782;10.282;2023-02-26T02:44:01;68.43;;;33.00;;
26157;SDS011;67284;44.782;10.282;2023-02-26T02:49:04;59.90;;;32.42;;
26157;SDS011;67284;44.782;10.282;2023-02-26T02:54:12;57.03;;;31.08;;
26157;SDS011;67284;44.782;10.282;2023-02-26T03:04:05;65.18;;;30.85;;
26157;SDS011;67284;44.782;10.282;2023-02-26T03:09:00;67.55;;;33.25;;
26157;SDS011;67284;44.782;10.282;2023-02-26T03:13:54;60.10;;;32.42;;
26157;SDS011;67284;44.782;10.282;2023-02-26T03:29:34;59.03;;;30.90;;
26157;SDS011;67284;44.782;10.282;2023-02-26T03:34:40;56.22;;;29.40;;
26157;SDS011;67284;44.782;10.282;2023-02-26T03:45:10;95.38;;;49.13;;
26157;SDS011;67284;44.782;10.282;2023-02-26T04:00:26;174.57;;;78.57;;
26157;SDS011;67284;44.782;10.282;2023-02-26T04:05:20;83.90;;;33.00;;
26157;SDS011;67284;44.782;10.282;2023-02-26T04:10:18;33.38;;;12.25;;
26157;SDS011;67284;44.782;10.282;2023-02-26T04:15:15;20.35;;;7.93;;
26157;SDS011;67284;44.782;10.282;2023-02-26T04:20:07;21.17;;;6.07;;
26157;SDS011;67284;44.782;10.282;2023-02-26T04:25:03;13.57;;;4.25;;
26157;SDS011;67284;44.782;10.282;2023-02-26T04:29:55;13.88;;;4.30;;
26157;SDS011;67284;44.782;10.282;2023-02-26T04:34:48;10.45;;;5.25;;
26157;SDS011;67284;44.782;10.282;2023-02-26T04:39:42;14.02;;;4.20;;
26157;SDS011;67284;44.782;10.282;2023-02-26T04:44:35;7.45;;;3.00;;
26157;SDS011;67284;44.782;10.282;2023-02-26T04:49:27;11.23;;;3.20;;
26157;SDS011;67284;44.782;10.282;2023-02-26T04:54:19;13.30;;;3.45;;
26157;SDS011;67284;44.782;10.282;2023-02-26T04:59:11;9.98;;;2.35;;
26157;SDS011;67284;44.782;10.282;2023-02-26T05:04:04;14.77;;;3.90;;
26157;SDS011;67284;44.782;10.282;2023-02-26T05:08:56;11.80;;;2.83;;
26157;SDS011;67284;44.782;10.282;2023-02-26T05:13:48;21.30;;;4.35;;
26157;SDS011;67284;44.782;10.282;2023-02-26T05:18:40;13.88;;;3.97;;
26157;SDS011;67284;44.782;10.282;2023-02-26T05:23:32;17.83;;;3.42;;
26157;SDS011;67284;44.782;10.282;2023-02-26T05:28:24;10.25;;;3.05;;
26157;SDS011;67284;44.782;10.282;2023-02-26T05:33:17;19.63;;;3.88;;
26157;SDS011;67284;44.782;10.282;2023-02-26T05:38:09;7.15;;;2.50;;
26157;SDS011;67284;44.782;10.282;2023-02-26T05:43:01;15.55;;;2.85;;
26157;SDS011;67284;44.782;10.282;2023-02-26T05:47:53;9.65;;;2.60;;
26157;SDS011;67284;44.782;10.282;2023-02-26T05:52:45;17.35;;;2.33;;
26157;SDS011;67284;44.782;10.282;2023-02-26T05:57:37;11.10;;;3.03;;
26157;SDS011;67284;44.782;10.282;2023-02-26T06:02:29;10.20;;;2.92;;
26157;SDS011;67284;44.782;10.282;2023-02-26T06:07:20;9.15;;;1.60;;
26157;SDS011;67284;44.782;10.282;2023-02-26T06:12:12;8.85;;;2.05;;
26157;SDS011;67284;44.782;10.282;2023-02-26T06:17:05;9.38;;;2.60;;
26157;SDS011;67284;44.782;10.282;2023-02-26T06:21:57;5.95;;;1.80;;
26157;SDS011;67284;44.782;10.282;2023-02-26T06:26:49;13.00;;;3.15;;
26157;SDS011;67284;44.782;10.282;2023-02-26T06:31:41;6.18;;;1.17;;
26157;SDS011;67284;44.782;10.282;2023-02-26T06:36:33;10.10;;;1.65;;
26157;SDS011;67284;44.782;10.282;2023-02-26T06:41:25;11.35;;;1.88;;
26157;SDS011;67284;44.782;10.282;2023-02-26T06:46:16;4.78;;;1.35;;
26157;SDS011;67284;44.782;10.282;2023-02-26T06:51:08;6.65;;;1.33;;
26157;SDS011;67284;44.782;10.282;2023-02-26T06:56:00;6.82;;;1.20;;
26157;SDS011;67284;44.782;10.282;2023-02-26T07:00:53;5.88;;;1.17;;
26157;SDS011;67284;44.782;10.282;2023-02-26T07:05:45;4.15;;;1.08;;
26157;SDS011;67284;44.782;10.282;2023-02-26T07:10:37;9.15;;;1.27;;
26157;SDS011;67284;44.782;10.282;2023-02-26T07:15:29;10.20;;;1.30;;
26157;SDS011;67284;44.782;10.282;2023-02-26T07:20:21;8.40;;;1.30;;
26157;SDS011;67284;44.782;10.282;2023-02-26T07:25:13;3.67;;;0.90;;
26157;SDS011;67284;44.782;10.282;2023-02-26T07:30:06;5.50;;;1.00;;
26157;SDS011;67284;44.782;10.282;2023-02-26T07:34:58;5.68;;;1.10;;
26157;SDS011;67284;44.782;10.282;2023-02-26T07:39:53;2.55;;;1.00;;
26157;SDS011;67284;44.782;10.282;2023-02-26T07:44:46;2.20;;;0.80;;
26157;SDS011;67284;44.782;10.282;2023-02-26T07:49:39;2.63;;;1.45;;
26157;SDS011;67284;44.782;10.282;2023-02-26T07:54:30;5.25;;;1.20;;
26157;SDS011;67284;44.782;10.282;2023-02-26T07:59:22;1.20;;;1.10;;
26157;SDS011;67284;44.782;10.282;2023-02-26T08:04:14;3.05;;;0.90;;
26157;SDS011;67284;44.782;10.282;2023-02-26T08:09:06;6.65;;;1.17;;
26157;SDS011;67284;44.782;10.282;2023-02-26T08:13:58;4.60;;;1.27;;
26157;SDS011;67284;44.782;10.282;2023-02-26T08:18:50;10.93;;;2.05;;
26157;SDS011;67284;44.782;10.282;2023-02-26T08:23:42;2.92;;;1.08;;
26157;SDS011;67284;44.782;10.282;2023-02-26T08:28:34;6.55;;;1.23;;
26157;SDS011;67284;44.782;10.282;2023-02-26T08:33:26;5.13;;;0.88;;
26157;SDS011;67284;44.782;10.282;2023-02-26T08:38:19;2.53;;;0.88;;
26157;SDS011;67284;44.782;10.282;2023-02-26T08:43:11;3.63;;;0.85;;
26157;SDS011;67284;44.782;10.282;2023-02-26T08:48:03;2.78;;;1.00;;
26157;SDS011;67284;44.782;10.282;2023-02-26T08:52:55;4.68;;;1.13;;
26157;SDS011;67284;44.782;10.282;2023-02-26T08:57:46;5.82;;;1.60;;
26157;SDS011;67284;44.782;10.282;2023-02-26T09:02:38;2.88;;;1.73;;
26157;SDS011;67284;44.782;10.282;2023-02-26T09:07:30;6.13;;;1.90;;
26157;SDS011;67284;44.782;10.282;2023-02-26T09:12:22;8.07;;;2.90;;
26157;SDS011;67284;44.782;10.282;2023-02-26T09:17:15;4.47;;;1.50;;
26157;SDS011;67284;44.782;10.282;2023-02-26T09:22:06;4.18;;;1.92;;
26157;SDS011;67284;44.782;10.282;2023-02-26T09:26:58;1.33;;;1.08;;
26157;SDS011;67284;44.782;10.282;2023-02-26T09:31:51;6.47;;;1.42;;
26157;SDS011;67284;44.782;10.282;2023-02-26T09:36:43;3.58;;;2.03;;
26157;SDS011;67284;44.782;10.282;2023-02-26T09:41:37;2.55;;;1.20;;
26157;SDS011;67284;44.782;10.282;2023-02-26T09:51:54;3.50;;;2.38;;
26157;SDS011;67284;44.782;10.282;2023-02-26T09:56:51;2.75;;;1.85;;
26157;SDS011;67284;44.782;10.282;2023-02-26T10:01:55;3.88;;;1.58;;
26157;SDS011;67284;44.782;10.282;2023-02-26T10:12:25;3.22;;;1.50;;
26157;SDS011;67284;44.782;10.282;2023-02-26T10:17:31;13.13;;;6.97;;
26157;SDS011;67284;44.782;10.282;2023-02-26T10:22:45;7.13;;;2.75;;
26157;SDS011;67284;44.782;10.282;2023-02-26T10:37:59;7.80;;;6.70;;
26157;SDS011;67284;44.782;10.282;2023-02-26T10:42:57;3.05;;;2.50;;
26157;SDS011;67284;44.782;10.282;2023-02-26T10:53:00;5.15;;;1.00;;
26157;SDS011;67284;44.782;10.282;2023-02-26T10:58:04;2.05;;;1.38;;
26157;SDS011;67284;44.782;10.282;2023-02-26T11:02:56;2.10;;;1.88;;
26157;SDS011;67284;44.782;10.282;2023-02-26T11:07:50;3.25;;;2.38;;
26157;SDS011;67284;44.782;10.282;2023-02-26T11:12:46;2.63;;;2.00;;
26157;SDS011;67284;44.782;10.282;2023-02-26T11:17:38;1.30;;;1.00;;
26157;SDS011;67284;44.782;10.282;2023-02-26T11:22:31;1.65;;;0.90;;
26157;SDS011;67284;44.782;10.282;2023-02-26T11:27:26;2.42;;;1.63;;
26157;SDS011;67284;44.782;10.282;2023-02-26T11:32:28;5.07;;;1.63;;
26157;SDS011;67284;44.782;10.282;2023-02-26T11:37:26;12.98;;;10.70;;
26157;SDS011;67284;44.782;10.282;2023-02-26T11:42:20;8.43;;;6.57;;
26157;SDS011;67284;44.782;10.282;2023-02-26T11:57:00;5.88;;;3.58;;
26157;SDS011;67284;44.782;10.282;2023-02-26T12:01:57;7.35;;;5.05;;
26157;SDS011;67284;44.782;10.282;2023-02-26T12:06:54;2.90;;;2.08;;
26157;SDS011;67284;44.782;10.282;2023-02-26T12:21:58;4.18;;;1.92;;
26157;SDS011;67284;44.782;10.282;2023-02-26T12:27:14;4.32;;;2.03;;
26157;SDS011;67284;44.782;10.282;2023-02-26T12:32:14;1.95;;;1.40;;
26157;SDS011;67284;44.782;10.282;2023-02-26T12:52:30;6.83;;;3.60;;
26157;SDS011;67284;44.782;10.282;2023-02-26T13:03:02;12.85;;;6.97;;
26157;SDS011;67284;44.782;10.282;2023-02-26T13:23:22;6.30;;;3.65;;
26157;SDS011;67284;44.782;10.282;2023-02-26T13:33:17;4.50;;;2.38;;
26157;SDS011;67284;44.782;10.282;2023-02-26T13:38:17;6.10;;;2.53;;
26157;SDS011;67284;44.782;10.282;2023-02-26T13:48:38;4.55;;;2.65;;
26157;SDS011;67284;44.782;10.282;2023-02-26T13:53:33;7.20;;;3.10;;
26157;SDS011;67284;44.782;10.282;2023-02-26T13:58:37;8.30;;;4.82;;
26157;SDS011;67284;44.782;10.282;2023-02-26T14:03:49;7.22;;;3.92;;
26157;SDS011;67284;44.782;10.282;2023-02-26T14:08:43;8.15;;;3.30;;
26157;SDS011;67284;44.782;10.282;2023-02-26T14:13:39;5.97;;;2.38;;
26157;SDS011;67284;44.782;10.282;2023-02-26T14:23:33;4.25;;;2.47;;
26157;SDS011;67284;44.782;10.282;2023-02-26T14:33:25;5.53;;;2.20;;
26157;SDS011;67284;44.782;10.282;2023-02-26T14:48:31;11.02;;;3.95;;
26157;SDS011;67284;44.782;10.282;2023-02-26T14:58:50;11.10;;;6.05;;
26157;SDS011;67284;44.782;10.282;2023-02-26T15:24:40;10.10;;;6.50;;
26157;SDS011;67284;44.782;10.282;2023-02-26T15:29:34;5.43;;;4.72;;
26157;SDS011;67284;44.782;10.282;2023-02-26T15:34:28;7.07;;;3.60;;
26157;SDS011;67284;44.782;10.282;2023-02-26T15:39:21;4.28;;;2.40;;
26157;SDS011;67284;44.782;10.282;2023-02-26T15:44:28;2.28;;;1.67;;
26157;SDS011;67284;44.782;10.282;2023-02-26T15:49:26;3.60;;;1.83;;
26157;SDS011;67284;44.782;10.282;2023-02-26T16:04:16;6.60;;;2.38;;
26157;SDS011;67284;44.782;10.282;2023-02-26T16:09:14;4.43;;;1.45;;
26157;SDS011;67284;44.782;10.282;2023-02-26T16:14:20;8.13;;;3.53;;
26157;SDS011;67284;44.782;10.282;2023-02-26T16:19:35;21.40;;;9.32;;
26157;SDS011;67284;44.782;10.282;2023-02-26T16:24:31;5.32;;;3.25;;
26157;SDS011;67284;44.782;10.282;2023-02-26T16:29:25;5.60;;;3.15;;
26157;SDS011;67284;44.782;10.282;2023-02-26T16:34:27;5.07;;;2.45;;
26157;SDS011;67284;44.782;10.282;2023-02-26T16:39:29;10.68;;;5.75;;
26157;SDS011;67284;44.782;10.282;2023-02-26T16:49:23;8.75;;;3.47;;
26157;SDS011;67284;44.782;10.282;2023-02-26T16:54:21;7.95;;;5.18;;
26157;SDS011;67284;44.782;10.282;2023-02-26T16:59:21;12.50;;;6.35;;
26157;SDS011;67284;44.782;10.282;2023-02-26T17:04:16;10.13;;;4.37;;
26157;SDS011;67284;44.782;10.282;2023-02-26T17:09:23;4.68;;;3.95;;
26157;SDS011;67284;44.782;10.282;2023-02-26T17:14:28;6.70;;;3.25;;
26157;SDS011;67284;44.782;10.282;2023-02-26T17:19:25;7.18;;;3.22;;
26157;SDS011;67284;44.782;10.282;2023-02-26T17:24:19;5.50;;;3.67;;
26157;SDS011;67284;44.782;10.282;2023-02-26T17:29:18;21.98;;;2.78;;
26157;SDS011;67284;44.782;10.282;2023-02-26T17:34:13;7.85;;;2.25;;
26157;SDS011;67284;44.782;10.282;2023-02-26T17:39:05;10.55;;;6.70;;
26157;SDS011;67284;44.782;10.282;2023-02-26T17:43:58;14.68;;;9.13;;
26157;SDS011;67284;44.782;10.282;2023-02-26T17:48:49;8.25;;;3.53;;
26157;SDS011;67284;44.782;10.282;2023-02-26T17:53:41;11.73;;;5.35;;
26157;SDS011;67284;44.782;10.282;2023-02-26T17:58:35;8.75;;;4.00;;
26157;SDS011;67284;44.782;10.282;2023-02-26T18:03:27;5.88;;;4.05;;
26157;SDS011;67284;44.782;10.282;2023-02-26T18:13:12;6.55;;;3.38;;
26157;SDS011;67284;44.782;10.282;2023-02-26T18:18:04;5.47;;;2.90;;
26157;SDS011;67284;44.782;10.282;2023-02-26T18:22:56;11.93;;;3.80;;
26157;SDS011;67284;44.782;10.282;2023-02-26T18:27:50;14.63;;;4.45;;
26157;SDS011;67284;44.782;10.282;2023-02-26T18:32:50;5.68;;;3.45;;
26157;SDS011;67284;44.782;10.282;2023-02-26T18:37:43;5.68;;;3.20;;
26157;SDS011;67284;44.782;10.282;2023-02-26T18:42:35;6.40;;;3.30;;
26157;SDS011;67284;44.782;10.282;2023-02-26T18:47:27;9.15;;;3.50;;
26157;SDS011;67284;44.782;10.282;2023-02-26T18:52:19;7.18;;;3.30;;
26157;SDS011;67284;44.782;10.282;2023-02-26T18:57:11;9.30;;;3.63;;
26157;SDS011;67284;44.782;10.282;2023-02-26T19:02:03;8.18;;;3.30;;
26157;SDS011;67284;44.782;10.282;2023-02-26T19:06:57;7.82;;;4.72;;
26157;SDS011;67284;44.782;10.282;2023-02-26T19:11:49;8.95;;;4.68;;
26157;SDS011;67284;44.782;10.282;2023-02-26T19:16:41;6.93;;;3.78;;
26157;SDS011;67284;44.782;10.282;2023-02-26T19:21:34;9.45;;;4.18;;
26157;SDS011;67284;44.782;10.282;2023-02-26T19:26:30;7.38;;;3.63;;
26157;SDS011;67284;44.782;10.282;2023-02-26T19:31:22;10.98;;;4.65;;
26157;SDS011;67284;44.782;10.282;2023-02-26T19:36:15;7.75;;;3.80;;
26157;SDS011;67284;44.782;10.282;2023-02-26T19:41:07;5.97;;;3.80;;
26157;SDS011;67284;44.782;10.282;2023-02-26T19:45:59;8.05;;;3.38;;
26157;SDS011;67284;44.782;10.282;2023-02-26T19:50:53;10.57;;;3.80;;
26157;SDS011;67284;44.782;10.282;2023-02-26T19:55:47;6.97;;;3.15;;
26157;SDS011;67284;44.782;10.282;2023-02-26T20:00:39;9.73;;;3.90;;
26157;SDS011;67284;44.782;10.282;2023-02-26T20:05:31;6.85;;;4.15;;
26157;SDS011;67284;44.782;10.282;2023-02-26T20:10:22;8.27;;;4.15;;
26157;SDS011;67284;44.782;10.282;2023-02-26T20:15:14;6.30;;;3.20;;
26157;SDS011;67284;44.782;10.282;2023-02-26T20:20:07;8.95;;;3.22;;
26157;SDS011;67284;44.782;10.282;2023-02-26T20:25:00;8.13;;;3.00;;
26157;SDS011;67284;44.782;10.282;2023-02-26T20:29:51;4.85;;;3.28;;
26157;SDS011;67284;44.782;10.282;2023-02-26T20:34:43;7.22;;;2.97;;
26157;SDS011;67284;44.782;10.282;2023-02-26T20:39:35;5.72;;;3.08;;
26157;SDS011;67284;44.782;10.282;2023-02-26T20:44:27;4.88;;;2.65;;
26157;SDS011;67284;44.782;10.282;2023-02-26T20:49:19;3.42;;;2.13;;
26157;SDS011;67284;44.782;10.282;2023-02-26T20:54:12;3.83;;;2.70;;
26157;SDS011;67284;44.782;10.282;2023-02-26T20:59:05;6.10;;;3.00;;
26157;SDS011;67284;44.782;10.282;2023-02-26T21:03:58;6.60;;;3.60;;
26157;SDS011;67284;44.782;10.282;2023-02-26T21:08:50;37.90;;;14.55;;
26157;SDS011;67284;44.782;10.282;2023-02-26T21:13:42;12.82;;;5.45;;
26157;SDS011;67284;44.782;10.282;2023-02-26T21:18:36;7.95;;;3.15;;
26157;SDS011;67284;44.782;10.282;2023-02-26T21:23:27;3.03;;;2.10;;
26157;SDS011;67284;44.782;10.282;2023-02-26T21:28:19;1.83;;;1.60;;
26157;SDS011;67284;44.782;10.282;2023-02-26T21:33:11;5.53;;;1.95;;
26157;SDS011;67284;44.782;10.282;2023-02-26T21:38:04;5.30;;;1.90;;
26157;SDS011;67284;44.782;10.282;2023-02-26T21:42:55;11.45;;;1.73;;
26157;SDS011;67284;44.782;10.282;2023-02-26T21:47:47;2.83;;;1.60;;
26157;SDS011;67284;44.782;10.282;2023-02-26T21:52:39;1.95;;;1.40;;
26157;SDS011;67284;44.782;10.282;2023-02-26T21:57:31;2.05;;;1.80;;
26157;SDS011;67284;44.782;10.282;2023-02-26T22:02:23;2.55;;;1.60;;
26157;SDS011;67284;44.782;10.282;2023-02-26T22:07:15;2.22;;;1.50;;
26157;SDS011;67284;44.782;10.282;2023-02-26T22:12:07;3.03;;;1.45;;
26157;SDS011;67284;44.782;10.282;2023-02-26T22:16:59;2.17;;;1.40;;
26157;SDS011;67284;44.782;10.282;2023-02-26T22:21:51;3.22;;;1.30;;
26157;SDS011;67284;44.782;10.282;2023-02-26T22:26:42;4.93;;;2.13;;
26157;SDS011;67284;44.782;10.282;2023-02-26T22:31:35;3.25;;;1.77;;
26157;SDS011;67284;44.782;10.282;2023-02-26T22:36:27;2.65;;;1.63;;
26157;SDS011;67284;44.782;10.282;2023-02-26T22:41:22;3.92;;;1.80;;
26157;SDS011;67284;44.782;10.282;2023-02-26T22:46:14;3.17;;;2.10;;
26157;SDS011;67284;44.782;10.282;2023-02-26T22:51:07;4.13;;;2.08;;
26157;SDS011;67284;44.782;10.282;2023-02-26T22:55:59;2.67;;;1.80;;
26157;SDS011;67284;44.782;10.282;2023-02-26T23:00:58;3.53;;;1.92;;
26157;SDS011;67284;44.782;10.282;2023-02-26T23:05:52;2.42;;;1.77;;
26157;SDS011;67284;44.782;10.282;2023-02-26T23:10:44;3.70;;;1.60;;
26157;SDS011;67284;44.782;10.282;2023-02-26T23:15:36;3.45;;;1.60;;
26157;SDS011;67284;44.782;10.282;2023-02-26T23:20:28;3.05;;;1.40;;
26157;SDS011;67284;44.782;10.282;2023-02-26T23:25:20;1.50;;;1.35;;
26157;SDS011;67284;44.782;10.282;2023-02-26T23:30:12;3.13;;;2.05;;
26157;SDS011;67284;44.782;10.282;2023-02-26T23:35:04;1.77;;;1.60;;
26157;SDS011;67284;44.782;10.282;2023-02-26T23:39:57;2.60;;;1.60;;
26157;SDS011;67284;44.782;10.282;2023-02-26T23:44:48;2.45;;;1.73;;
26157;SDS011;67284;44.782;10.282;2023-02-26T23:49:40;3.33;;;1.42;;
26157;SDS011;67284;44.782;10.282;2023-02-26T23:54:32;1.23;;;1.10;;
26157;SDS011;67284;44.782;10.282;2023-02-26T23:59:24;1.85;;;1.55;;
